sensor_id;sensor_type;location;lat;lon;timestamp;P1;durP1;ratioP1;P2;durP2;ratioP2
18449;SDS011;9354;50.194;7.690;2023-08-06T00:01:18;6.70;;;3.90;;
18449;SDS011;9354;50.194;7.690;2023-08-06T00:03:46;6.33;;;3.77;;
18449;SDS011;9354;50.194;7.690;2023-08-06T00:06:14;10.03;;;3.83;;
18449;SDS011;9354;50.194;7.690;2023-08-06T00:08:43;7.60;;;3.50;;
18449;SDS011;9354;50.194;7.690;2023-08-06T00:11:10;10.00;;;3.53;;
18449;SDS011;9354;50.194;7.690;2023-08-06T00:13:38;6.93;;;3.40;;
18449;SDS011;9354;50.194;7.690;2023-08-06T00:16:09;9.30;;;3.70;;
18449;SDS011;9354;50.194;7.690;2023-08-06T00:18:37;5.37;;;3.10;;
18449;SDS011;9354;50.194;7.690;2023-08-06T00:21:04;10.30;;;3.70;;
18449;SDS011;9354;50.194;7.690;2023-08-06T00:23:31;7.13;;;3.43;;
18449;SDS011;9354;50.194;7.690;2023-08-06T00:26:00;8.97;;;3.40;;
18449;SDS011;9354;50.194;7.690;2023-08-06T00:28:28;4.67;;;3.53;;
18449;SDS011;9354;50.194;7.690;2023-08-06T00:30:55;7.53;;;3.20;;
18449;SDS011;9354;50.194;7.690;2023-08-06T00:33:23;11.67;;;3.20;;
18449;SDS011;9354;50.194;7.690;2023-08-06T00:35:50;5.33;;;3.23;;
18449;SDS011;9354;50.194;7.690;2023-08-06T00:38:18;7.57;;;3.30;;
18449;SDS011;9354;50.194;7.690;2023-08-06T00:40:45;6.10;;;2.93;;
18449;SDS011;9354;50.194;7.690;2023-08-06T00:43:14;7.67;;;3.40;;
18449;SDS011;9354;50.194;7.690;2023-08-06T00:45:41;4.37;;;3.00;;
18449;SDS011;9354;50.194;7.690;2023-08-06T00:48:09;9.40;;;2.83;;
18449;SDS011;9354;50.194;7.690;2023-08-06T00:50:37;6.10;;;2.90;;
18449;SDS011;9354;50.194;7.690;2023-08-06T00:53:04;5.90;;;2.70;;
18449;SDS011;9354;50.194;7.690;2023-08-06T00:55:32;10.20;;;3.27;;
18449;SDS011;9354;50.194;7.690;2023-08-06T00:58:00;6.73;;;2.80;;
18449;SDS011;9354;50.194;7.690;2023-08-06T01:00:29;4.27;;;2.40;;
18449;SDS011;9354;50.194;7.690;2023-08-06T01:02:56;4.70;;;2.40;;
18449;SDS011;9354;50.194;7.690;2023-08-06T01:05:24;7.30;;;2.37;;
18449;SDS011;9354;50.194;7.690;2023-08-06T01:07:56;3.97;;;2.57;;
18449;SDS011;9354;50.194;7.690;2023-08-06T01:10:40;4.50;;;2.57;;
18449;SDS011;9354;50.194;7.690;2023-08-06T01:13:16;4.80;;;2.40;;
18449;SDS011;9354;50.194;7.690;2023-08-06T01:15:55;6.70;;;2.33;;
18449;SDS011;9354;50.194;7.690;2023-08-06T01:18:23;5.83;;;2.53;;
18449;SDS011;9354;50.194;7.690;2023-08-06T01:20:52;3.53;;;2.50;;
18449;SDS011;9354;50.194;7.690;2023-08-06T01:23:19;3.63;;;2.30;;
18449;SDS011;9354;50.194;7.690;2023-08-06T01:25:49;7.23;;;3.17;;
18449;SDS011;9354;50.194;7.690;2023-08-06T01:28:23;5.77;;;2.20;;
18449;SDS011;9354;50.194;7.690;2023-08-06T01:30:59;4.33;;;2.23;;
18449;SDS011;9354;50.194;7.690;2023-08-06T01:33:31;7.73;;;2.80;;
18449;SDS011;9354;50.194;7.690;2023-08-06T01:36:02;6.53;;;2.30;;
18449;SDS011;9354;50.194;7.690;2023-08-06T01:38:32;4.33;;;2.37;;
18449;SDS011;9354;50.194;7.690;2023-08-06T01:40:59;5.80;;;2.50;;
18449;SDS011;9354;50.194;7.690;2023-08-06T01:43:27;5.37;;;2.57;;
18449;SDS011;9354;50.194;7.690;2023-08-06T01:45:54;10.13;;;2.50;;
18449;SDS011;9354;50.194;7.690;2023-08-06T01:48:21;4.77;;;2.70;;
18449;SDS011;9354;50.194;7.690;2023-08-06T01:50:49;4.47;;;2.67;;
18449;SDS011;9354;50.194;7.690;2023-08-06T01:53:17;4.47;;;2.17;;
18449;SDS011;9354;50.194;7.690;2023-08-06T01:55:47;7.30;;;2.50;;
18449;SDS011;9354;50.194;7.690;2023-08-06T01:58:15;3.40;;;2.23;;
18449;SDS011;9354;50.194;7.690;2023-08-06T02:00:42;4.80;;;2.83;;
18449;SDS011;9354;50.194;7.690;2023-08-06T02:03:10;7.13;;;3.60;;
18449;SDS011;9354;50.194;7.690;2023-08-06T02:05:37;5.57;;;2.87;;
18449;SDS011;9354;50.194;7.690;2023-08-06T02:08:04;4.70;;;2.63;;
18449;SDS011;9354;50.194;7.690;2023-08-06T02:10:33;7.97;;;2.43;;
18449;SDS011;9354;50.194;7.690;2023-08-06T02:13:01;7.40;;;2.93;;
18449;SDS011;9354;50.194;7.690;2023-08-06T02:15:28;4.30;;;2.70;;
18449;SDS011;9354;50.194;7.690;2023-08-06T02:17:55;5.30;;;2.70;;
18449;SDS011;9354;50.194;7.690;2023-08-06T02:20:23;9.47;;;2.60;;
18449;SDS011;9354;50.194;7.690;2023-08-06T02:22:50;6.90;;;2.47;;
18449;SDS011;9354;50.194;7.690;2023-08-06T02:25:17;6.27;;;2.60;;
18449;SDS011;9354;50.194;7.690;2023-08-06T02:27:46;7.30;;;2.70;;
18449;SDS011;9354;50.194;7.690;2023-08-06T02:30:13;7.13;;;2.73;;
18449;SDS011;9354;50.194;7.690;2023-08-06T02:32:41;4.97;;;2.40;;
18449;SDS011;9354;50.194;7.690;2023-08-06T02:35:09;5.53;;;2.73;;
18449;SDS011;9354;50.194;7.690;2023-08-06T02:37:37;3.60;;;2.20;;
18449;SDS011;9354;50.194;7.690;2023-08-06T02:40:04;4.00;;;2.53;;
18449;SDS011;9354;50.194;7.690;2023-08-06T02:42:32;6.47;;;2.83;;
18449;SDS011;9354;50.194;7.690;2023-08-06T02:45:01;4.70;;;2.60;;
18449;SDS011;9354;50.194;7.690;2023-08-06T02:47:29;6.70;;;2.90;;
18449;SDS011;9354;50.194;7.690;2023-08-06T02:49:57;5.73;;;2.93;;
18449;SDS011;9354;50.194;7.690;2023-08-06T02:52:24;8.63;;;2.90;;
18449;SDS011;9354;50.194;7.690;2023-08-06T02:54:52;3.33;;;2.50;;
18449;SDS011;9354;50.194;7.690;2023-08-06T02:57:19;4.37;;;2.40;;
18449;SDS011;9354;50.194;7.690;2023-08-06T02:59:46;4.37;;;2.40;;
18449;SDS011;9354;50.194;7.690;2023-08-06T03:02:15;5.93;;;2.67;;
18449;SDS011;9354;50.194;7.690;2023-08-06T03:04:43;4.17;;;2.57;;
18449;SDS011;9354;50.194;7.690;2023-08-06T03:07:10;5.47;;;2.67;;
18449;SDS011;9354;50.194;7.690;2023-08-06T03:09:37;7.73;;;2.83;;
18449;SDS011;9354;50.194;7.690;2023-08-06T03:12:05;5.20;;;2.70;;
18449;SDS011;9354;50.194;7.690;2023-08-06T03:14:33;6.00;;;2.80;;
18449;SDS011;9354;50.194;7.690;2023-08-06T03:17:01;6.03;;;3.30;;
18449;SDS011;9354;50.194;7.690;2023-08-06T03:19:29;9.13;;;3.43;;
18449;SDS011;9354;50.194;7.690;2023-08-06T03:21:57;5.20;;;2.70;;
18449;SDS011;9354;50.194;7.690;2023-08-06T03:24:24;5.83;;;3.17;;
18449;SDS011;9354;50.194;7.690;2023-08-06T03:26:51;5.10;;;2.80;;
18449;SDS011;9354;50.194;7.690;2023-08-06T03:29:19;6.17;;;2.97;;
18449;SDS011;9354;50.194;7.690;2023-08-06T03:31:47;6.23;;;3.10;;
18449;SDS011;9354;50.194;7.690;2023-08-06T03:34:14;5.87;;;3.00;;
18449;SDS011;9354;50.194;7.690;2023-08-06T03:36:43;5.87;;;2.90;;
18449;SDS011;9354;50.194;7.690;2023-08-06T03:39:10;5.87;;;3.17;;
18449;SDS011;9354;50.194;7.690;2023-08-06T03:41:39;8.40;;;2.93;;
18449;SDS011;9354;50.194;7.690;2023-08-06T03:44:07;9.03;;;3.67;;
18449;SDS011;9354;50.194;7.690;2023-08-06T03:46:34;7.43;;;3.40;;
18449;SDS011;9354;50.194;7.690;2023-08-06T03:49:01;13.27;;;3.30;;
18449;SDS011;9354;50.194;7.690;2023-08-06T03:51:29;9.83;;;3.47;;
18449;SDS011;9354;50.194;7.690;2023-08-06T03:53:58;7.60;;;3.17;;
18449;SDS011;9354;50.194;7.690;2023-08-06T03:56:25;12.10;;;3.70;;
18449;SDS011;9354;50.194;7.690;2023-08-06T03:58:53;9.60;;;3.63;;
18449;SDS011;9354;50.194;7.690;2023-08-06T04:01:20;8.70;;;3.90;;
18449;SDS011;9354;50.194;7.690;2023-08-06T04:03:47;11.30;;;3.90;;
18449;SDS011;9354;50.194;7.690;2023-08-06T04:06:15;9.50;;;3.83;;
18449;SDS011;9354;50.194;7.690;2023-08-06T04:08:42;7.07;;;4.00;;
18449;SDS011;9354;50.194;7.690;2023-08-06T04:11:11;11.37;;;4.03;;
18449;SDS011;9354;50.194;7.690;2023-08-06T04:13:41;13.60;;;4.27;;
18449;SDS011;9354;50.194;7.690;2023-08-06T04:16:09;5.33;;;4.07;;
18449;SDS011;9354;50.194;7.690;2023-08-06T04:18:38;7.17;;;4.03;;
18449;SDS011;9354;50.194;7.690;2023-08-06T04:21:05;13.13;;;4.27;;
18449;SDS011;9354;50.194;7.690;2023-08-06T04:23:32;10.03;;;4.90;;
18449;SDS011;9354;50.194;7.690;2023-08-06T04:26:00;13.03;;;4.10;;
18449;SDS011;9354;50.194;7.690;2023-08-06T04:28:28;9.90;;;3.87;;
18449;SDS011;9354;50.194;7.690;2023-08-06T04:30:56;8.83;;;4.03;;
18449;SDS011;9354;50.194;7.690;2023-08-06T04:33:23;8.10;;;3.90;;
18449;SDS011;9354;50.194;7.690;2023-08-06T04:35:53;5.83;;;3.50;;
18449;SDS011;9354;50.194;7.690;2023-08-06T04:38:23;8.00;;;3.47;;
18449;SDS011;9354;50.194;7.690;2023-08-06T04:40:51;7.70;;;3.60;;
18449;SDS011;9354;50.194;7.690;2023-08-06T04:43:18;9.77;;;3.70;;
18449;SDS011;9354;50.194;7.690;2023-08-06T04:45:47;9.97;;;3.53;;
18449;SDS011;9354;50.194;7.690;2023-08-06T04:48:15;7.53;;;3.53;;
18449;SDS011;9354;50.194;7.690;2023-08-06T04:50:43;6.00;;;3.73;;
18449;SDS011;9354;50.194;7.690;2023-08-06T04:53:11;6.87;;;3.93;;
18449;SDS011;9354;50.194;7.690;2023-08-06T04:55:38;6.23;;;3.37;;
18449;SDS011;9354;50.194;7.690;2023-08-06T04:58:06;6.63;;;3.70;;
18449;SDS011;9354;50.194;7.690;2023-08-06T05:00:34;5.80;;;3.37;;
18449;SDS011;9354;50.194;7.690;2023-08-06T05:03:02;8.13;;;3.90;;
18449;SDS011;9354;50.194;7.690;2023-08-06T05:05:30;7.57;;;3.37;;
18449;SDS011;9354;50.194;7.690;2023-08-06T05:07:57;6.70;;;3.60;;
18449;SDS011;9354;50.194;7.690;2023-08-06T05:10:25;5.60;;;3.53;;
18449;SDS011;9354;50.194;7.690;2023-08-06T05:12:53;5.93;;;3.20;;
18449;SDS011;9354;50.194;7.690;2023-08-06T05:15:20;6.97;;;2.90;;
18449;SDS011;9354;50.194;7.690;2023-08-06T05:17:48;5.67;;;3.00;;
18449;SDS011;9354;50.194;7.690;2023-08-06T05:20:16;4.60;;;2.70;;
18449;SDS011;9354;50.194;7.690;2023-08-06T05:22:44;8.13;;;3.00;;
18449;SDS011;9354;50.194;7.690;2023-08-06T05:25:12;6.17;;;2.43;;
18449;SDS011;9354;50.194;7.690;2023-08-06T05:27:40;3.93;;;2.40;;
18449;SDS011;9354;50.194;7.690;2023-08-06T05:30:08;7.40;;;2.80;;
18449;SDS011;9354;50.194;7.690;2023-08-06T05:32:36;6.27;;;2.63;;
18449;SDS011;9354;50.194;7.690;2023-08-06T05:35:03;5.23;;;3.00;;
18449;SDS011;9354;50.194;7.690;2023-08-06T05:37:33;4.90;;;3.10;;
18449;SDS011;9354;50.194;7.690;2023-08-06T05:40:01;5.97;;;2.63;;
18449;SDS011;9354;50.194;7.690;2023-08-06T05:42:29;6.93;;;3.07;;
18449;SDS011;9354;50.194;7.690;2023-08-06T05:44:57;8.13;;;1.93;;
18449;SDS011;9354;50.194;7.690;2023-08-06T05:47:24;7.63;;;3.00;;
18449;SDS011;9354;50.194;7.690;2023-08-06T05:49:52;5.37;;;2.23;;
18449;SDS011;9354;50.194;7.690;2023-08-06T05:52:19;5.00;;;2.67;;
18449;SDS011;9354;50.194;7.690;2023-08-06T05:54:48;6.17;;;2.30;;
18449;SDS011;9354;50.194;7.690;2023-08-06T05:57:15;3.53;;;2.10;;
18449;SDS011;9354;50.194;7.690;2023-08-06T05:59:43;4.83;;;2.10;;
18449;SDS011;9354;50.194;7.690;2023-08-06T06:02:10;3.37;;;1.63;;
18449;SDS011;9354;50.194;7.690;2023-08-06T06:04:38;3.10;;;1.20;;
18449;SDS011;9354;50.194;7.690;2023-08-06T06:07:07;1.73;;;0.80;;
18449;SDS011;9354;50.194;7.690;2023-08-06T06:09:34;2.80;;;0.90;;
18449;SDS011;9354;50.194;7.690;2023-08-06T06:12:03;1.10;;;0.60;;
18449;SDS011;9354;50.194;7.690;2023-08-06T06:14:32;1.87;;;0.50;;
18449;SDS011;9354;50.194;7.690;2023-08-06T06:16:59;0.93;;;0.60;;
18449;SDS011;9354;50.194;7.690;2023-08-06T06:19:26;5.47;;;0.60;;
18449;SDS011;9354;50.194;7.690;2023-08-06T06:21:54;1.43;;;0.70;;
18449;SDS011;9354;50.194;7.690;2023-08-06T06:24:23;2.30;;;0.30;;
18449;SDS011;9354;50.194;7.690;2023-08-06T06:26:50;1.57;;;0.50;;
18449;SDS011;9354;50.194;7.690;2023-08-06T06:29:19;0.40;;;0.40;;
18449;SDS011;9354;50.194;7.690;2023-08-06T06:31:46;1.27;;;0.40;;
18449;SDS011;9354;50.194;7.690;2023-08-06T06:34:14;2.60;;;0.50;;
18449;SDS011;9354;50.194;7.690;2023-08-06T06:36:41;2.17;;;0.50;;
18449;SDS011;9354;50.194;7.690;2023-08-06T06:39:08;0.70;;;0.30;;
18449;SDS011;9354;50.194;7.690;2023-08-06T06:41:36;0.30;;;0.30;;
18449;SDS011;9354;50.194;7.690;2023-08-06T06:44:03;1.90;;;0.50;;
18449;SDS011;9354;50.194;7.690;2023-08-06T06:46:33;1.77;;;0.43;;
18449;SDS011;9354;50.194;7.690;2023-08-06T06:49:00;0.30;;;0.30;;
18449;SDS011;9354;50.194;7.690;2023-08-06T06:51:28;1.03;;;0.50;;
18449;SDS011;9354;50.194;7.690;2023-08-06T06:53:57;1.43;;;0.40;;
18449;SDS011;9354;50.194;7.690;2023-08-06T06:56:24;2.10;;;0.40;;
18449;SDS011;9354;50.194;7.690;2023-08-06T06:58:52;0.40;;;0.40;;
18449;SDS011;9354;50.194;7.690;2023-08-06T07:01:19;0.87;;;0.50;;
18449;SDS011;9354;50.194;7.690;2023-08-06T07:03:48;0.60;;;0.40;;
18449;SDS011;9354;50.194;7.690;2023-08-06T07:06:15;0.63;;;0.40;;
18449;SDS011;9354;50.194;7.690;2023-08-06T07:08:43;1.33;;;0.33;;
18449;SDS011;9354;50.194;7.690;2023-08-06T07:11:11;1.10;;;0.40;;
18449;SDS011;9354;50.194;7.690;2023-08-06T07:13:38;0.40;;;0.40;;
18449;SDS011;9354;50.194;7.690;2023-08-06T07:16:06;0.77;;;0.63;;
18449;SDS011;9354;50.194;7.690;2023-08-06T07:18:33;1.30;;;0.40;;
18449;SDS011;9354;50.194;7.690;2023-08-06T07:21:02;0.30;;;0.30;;
18449;SDS011;9354;50.194;7.690;2023-08-06T07:23:29;0.50;;;0.37;;
18449;SDS011;9354;50.194;7.690;2023-08-06T07:25:56;0.87;;;0.47;;
18449;SDS011;9354;50.194;7.690;2023-08-06T07:28:24;0.80;;;0.40;;
18449;SDS011;9354;50.194;7.690;2023-08-06T07:30:51;0.33;;;0.30;;
18449;SDS011;9354;50.194;7.690;2023-08-06T07:33:19;1.73;;;0.50;;
18449;SDS011;9354;50.194;7.690;2023-08-06T07:35:46;3.07;;;0.50;;
18449;SDS011;9354;50.194;7.690;2023-08-06T07:38:15;1.43;;;0.90;;
18449;SDS011;9354;50.194;7.690;2023-08-06T07:40:42;0.70;;;0.33;;
18449;SDS011;9354;50.194;7.690;2023-08-06T07:43:09;0.87;;;0.40;;
18449;SDS011;9354;50.194;7.690;2023-08-06T07:45:37;1.83;;;0.70;;
18449;SDS011;9354;50.194;7.690;2023-08-06T07:48:04;0.60;;;0.40;;
18449;SDS011;9354;50.194;7.690;2023-08-06T07:50:32;1.60;;;0.40;;
18449;SDS011;9354;50.194;7.690;2023-08-06T07:52:59;0.67;;;0.40;;
18449;SDS011;9354;50.194;7.690;2023-08-06T07:55:28;0.50;;;0.20;;
18449;SDS011;9354;50.194;7.690;2023-08-06T07:57:55;1.63;;;0.30;;
18449;SDS011;9354;50.194;7.690;2023-08-06T08:00:23;1.90;;;0.40;;
18449;SDS011;9354;50.194;7.690;2023-08-06T08:02:50;1.80;;;0.30;;
18449;SDS011;9354;50.194;7.690;2023-08-06T08:05:17;0.77;;;0.30;;
18449;SDS011;9354;50.194;7.690;2023-08-06T08:07:45;1.60;;;0.50;;
18449;SDS011;9354;50.194;7.690;2023-08-06T08:10:12;0.57;;;0.37;;
18449;SDS011;9354;50.194;7.690;2023-08-06T08:12:41;0.40;;;0.40;;
18449;SDS011;9354;50.194;7.690;2023-08-06T08:15:09;2.17;;;0.40;;
18449;SDS011;9354;50.194;7.690;2023-08-06T08:17:36;0.53;;;0.30;;
18449;SDS011;9354;50.194;7.690;2023-08-06T08:20:04;0.20;;;0.20;;
18449;SDS011;9354;50.194;7.690;2023-08-06T08:22:32;0.33;;;0.30;;
18449;SDS011;9354;50.194;7.690;2023-08-06T08:25:00;1.90;;;0.30;;
18449;SDS011;9354;50.194;7.690;2023-08-06T08:27:28;1.13;;;0.40;;
18449;SDS011;9354;50.194;7.690;2023-08-06T08:29:57;0.47;;;0.20;;
18449;SDS011;9354;50.194;7.690;2023-08-06T08:32:25;1.70;;;0.20;;
18449;SDS011;9354;50.194;7.690;2023-08-06T08:34:52;0.70;;;0.30;;
18449;SDS011;9354;50.194;7.690;2023-08-06T08:37:19;0.33;;;0.30;;
18449;SDS011;9354;50.194;7.690;2023-08-06T08:39:47;0.30;;;0.30;;
18449;SDS011;9354;50.194;7.690;2023-08-06T08:42:14;0.20;;;0.20;;
18449;SDS011;9354;50.194;7.690;2023-08-06T08:44:42;1.20;;;0.30;;
18449;SDS011;9354;50.194;7.690;2023-08-06T08:47:12;0.33;;;0.30;;
18449;SDS011;9354;50.194;7.690;2023-08-06T08:49:41;1.70;;;0.47;;
18449;SDS011;9354;50.194;7.690;2023-08-06T08:52:10;0.83;;;0.20;;
18449;SDS011;9354;50.194;7.690;2023-08-06T08:54:38;0.97;;;0.37;;
18449;SDS011;9354;50.194;7.690;2023-08-06T08:57:07;0.67;;;0.27;;
18449;SDS011;9354;50.194;7.690;2023-08-06T08:59:34;0.90;;;0.50;;
18449;SDS011;9354;50.194;7.690;2023-08-06T09:02:02;2.67;;;0.50;;
18449;SDS011;9354;50.194;7.690;2023-08-06T09:04:31;0.97;;;0.30;;
18449;SDS011;9354;50.194;7.690;2023-08-06T09:07:01;0.63;;;0.40;;
18449;SDS011;9354;50.194;7.690;2023-08-06T09:09:30;0.20;;;0.20;;
18449;SDS011;9354;50.194;7.690;2023-08-06T09:12:03;0.50;;;0.30;;
18449;SDS011;9354;50.194;7.690;2023-08-06T09:14:37;1.90;;;0.40;;
18449;SDS011;9354;50.194;7.690;2023-08-06T09:17:05;0.53;;;0.30;;
18449;SDS011;9354;50.194;7.690;2023-08-06T09:19:34;0.27;;;0.27;;
18449;SDS011;9354;50.194;7.690;2023-08-06T09:22:02;0.67;;;0.40;;
18449;SDS011;9354;50.194;7.690;2023-08-06T09:24:38;0.23;;;0.20;;
18449;SDS011;9354;50.194;7.690;2023-08-06T09:27:09;0.60;;;0.20;;
18449;SDS011;9354;50.194;7.690;2023-08-06T09:29:39;0.37;;;0.30;;
18449;SDS011;9354;50.194;7.690;2023-08-06T09:32:08;0.20;;;0.20;;
18449;SDS011;9354;50.194;7.690;2023-08-06T09:34:38;0.20;;;0.20;;
18449;SDS011;9354;50.194;7.690;2023-08-06T09:37:07;0.93;;;0.50;;
18449;SDS011;9354;50.194;7.690;2023-08-06T09:39:38;0.20;;;0.20;;
18449;SDS011;9354;50.194;7.690;2023-08-06T09:42:06;0.23;;;0.20;;
18449;SDS011;9354;50.194;7.690;2023-08-06T09:44:33;0.17;;;0.17;;
18449;SDS011;9354;50.194;7.690;2023-08-06T09:47:02;0.10;;;0.10;;
18449;SDS011;9354;50.194;7.690;2023-08-06T09:49:41;1.27;;;0.20;;
18449;SDS011;9354;50.194;7.690;2023-08-06T09:52:11;0.20;;;0.20;;
18449;SDS011;9354;50.194;7.690;2023-08-06T09:54:41;0.20;;;0.20;;
18449;SDS011;9354;50.194;7.690;2023-08-06T09:57:11;0.30;;;0.20;;
18449;SDS011;9354;50.194;7.690;2023-08-06T09:59:41;0.30;;;0.20;;
18449;SDS011;9354;50.194;7.690;2023-08-06T10:02:11;0.10;;;0.10;;
18449;SDS011;9354;50.194;7.690;2023-08-06T10:04:41;0.30;;;0.27;;
18449;SDS011;9354;50.194;7.690;2023-08-06T10:07:11;3.27;;;0.37;;
18449;SDS011;9354;50.194;7.690;2023-08-06T10:09:39;2.40;;;0.40;;
18449;SDS011;9354;50.194;7.690;2023-08-06T10:12:06;0.30;;;0.30;;
18449;SDS011;9354;50.194;7.690;2023-08-06T10:14:42;2.47;;;0.50;;
18449;SDS011;9354;50.194;7.690;2023-08-06T10:17:10;0.70;;;0.20;;
18449;SDS011;9354;50.194;7.690;2023-08-06T10:19:38;0.20;;;0.20;;
18449;SDS011;9354;50.194;7.690;2023-08-06T10:22:10;0.20;;;0.10;;
18449;SDS011;9354;50.194;7.690;2023-08-06T10:24:48;2.00;;;0.20;;
18449;SDS011;9354;50.194;7.690;2023-08-06T10:27:20;0.30;;;0.20;;
18449;SDS011;9354;50.194;7.690;2023-08-06T10:29:48;0.13;;;0.13;;
18449;SDS011;9354;50.194;7.690;2023-08-06T10:32:16;0.20;;;0.20;;
18449;SDS011;9354;50.194;7.690;2023-08-06T10:37:37;1.13;;;0.40;;
18449;SDS011;9354;50.194;7.690;2023-08-06T10:40:06;0.20;;;0.20;;
18449;SDS011;9354;50.194;7.690;2023-08-06T10:42:34;0.33;;;0.20;;
18449;SDS011;9354;50.194;7.690;2023-08-06T10:45:11;0.93;;;0.30;;
18449;SDS011;9354;50.194;7.690;2023-08-06T10:47:40;4.33;;;0.30;;
18449;SDS011;9354;50.194;7.690;2023-08-06T10:50:10;0.20;;;0.20;;
18449;SDS011;9354;50.194;7.690;2023-08-06T10:52:40;0.30;;;0.30;;
18449;SDS011;9354;50.194;7.690;2023-08-06T10:55:08;0.20;;;0.20;;
18449;SDS011;9354;50.194;7.690;2023-08-06T10:57:35;1.93;;;0.20;;
18449;SDS011;9354;50.194;7.690;2023-08-06T11:00:04;2.57;;;0.20;;
18449;SDS011;9354;50.194;7.690;2023-08-06T11:02:35;0.93;;;0.20;;
18449;SDS011;9354;50.194;7.690;2023-08-06T11:05:06;0.30;;;0.30;;
18449;SDS011;9354;50.194;7.690;2023-08-06T11:07:34;1.30;;;0.40;;
18449;SDS011;9354;50.194;7.690;2023-08-06T11:10:04;0.40;;;0.40;;
18449;SDS011;9354;50.194;7.690;2023-08-06T11:12:33;0.30;;;0.30;;
18449;SDS011;9354;50.194;7.690;2023-08-06T11:15:01;2.43;;;0.40;;
18449;SDS011;9354;50.194;7.690;2023-08-06T11:17:30;2.07;;;0.30;;
18449;SDS011;9354;50.194;7.690;2023-08-06T11:19:59;1.57;;;0.40;;
18449;SDS011;9354;50.194;7.690;2023-08-06T11:22:27;1.80;;;0.63;;
18449;SDS011;9354;50.194;7.690;2023-08-06T11:24:54;1.47;;;0.57;;
18449;SDS011;9354;50.194;7.690;2023-08-06T11:27:25;1.00;;;0.50;;
18449;SDS011;9354;50.194;7.690;2023-08-06T11:29:53;1.63;;;0.60;;
18449;SDS011;9354;50.194;7.690;2023-08-06T11:32:20;1.00;;;0.40;;
18449;SDS011;9354;50.194;7.690;2023-08-06T11:34:48;1.30;;;0.73;;
18449;SDS011;9354;50.194;7.690;2023-08-06T11:37:15;2.60;;;0.70;;
18449;SDS011;9354;50.194;7.690;2023-08-06T11:39:45;2.00;;;0.87;;
18449;SDS011;9354;50.194;7.690;2023-08-06T11:42:13;1.63;;;0.90;;
18449;SDS011;9354;50.194;7.690;2023-08-06T11:44:43;3.90;;;0.80;;
18449;SDS011;9354;50.194;7.690;2023-08-06T11:47:12;1.90;;;0.77;;
18449;SDS011;9354;50.194;7.690;2023-08-06T11:49:42;3.53;;;0.70;;
18449;SDS011;9354;50.194;7.690;2023-08-06T11:52:12;1.87;;;0.87;;
18449;SDS011;9354;50.194;7.690;2023-08-06T11:54:41;0.90;;;0.43;;
18449;SDS011;9354;50.194;7.690;2023-08-06T11:57:09;1.23;;;0.70;;
18449;SDS011;9354;50.194;7.690;2023-08-06T11:59:37;2.83;;;0.60;;
18449;SDS011;9354;50.194;7.690;2023-08-06T12:02:09;1.83;;;0.60;;
18449;SDS011;9354;50.194;7.690;2023-08-06T12:10:34;0.63;;;0.50;;
18449;SDS011;9354;50.194;7.690;2023-08-06T12:13:03;1.07;;;0.60;;
18449;SDS011;9354;50.194;7.690;2023-08-06T12:15:30;0.87;;;0.53;;
18449;SDS011;9354;50.194;7.690;2023-08-06T12:17:59;2.83;;;0.77;;
18449;SDS011;9354;50.194;7.690;2023-08-06T12:20:26;2.83;;;0.73;;
18449;SDS011;9354;50.194;7.690;2023-08-06T12:22:54;1.70;;;0.60;;
18449;SDS011;9354;50.194;7.690;2023-08-06T12:25:21;1.10;;;0.53;;
18449;SDS011;9354;50.194;7.690;2023-08-06T12:27:49;1.87;;;0.60;;
18449;SDS011;9354;50.194;7.690;2023-08-06T12:30:17;0.90;;;0.60;;
18449;SDS011;9354;50.194;7.690;2023-08-06T12:32:44;2.87;;;0.77;;
18449;SDS011;9354;50.194;7.690;2023-08-06T12:35:13;3.63;;;0.80;;
18449;SDS011;9354;50.194;7.690;2023-08-06T12:37:40;1.53;;;0.60;;
18449;SDS011;9354;50.194;7.690;2023-08-06T12:40:09;4.17;;;0.77;;
18449;SDS011;9354;50.194;7.690;2023-08-06T12:42:37;2.47;;;0.80;;
18449;SDS011;9354;50.194;7.690;2023-08-06T12:45:05;1.07;;;0.60;;
18449;SDS011;9354;50.194;7.690;2023-08-06T12:47:32;1.37;;;0.60;;
18449;SDS011;9354;50.194;7.690;2023-08-06T12:50:00;1.13;;;0.73;;
18449;SDS011;9354;50.194;7.690;2023-08-06T12:52:28;0.70;;;0.50;;
18449;SDS011;9354;50.194;7.690;2023-08-06T12:54:56;2.50;;;0.70;;
18449;SDS011;9354;50.194;7.690;2023-08-06T12:57:23;2.33;;;1.00;;
18449;SDS011;9354;50.194;7.690;2023-08-06T12:59:52;6.90;;;0.60;;
18449;SDS011;9354;50.194;7.690;2023-08-06T13:02:19;2.97;;;0.77;;
18449;SDS011;9354;50.194;7.690;2023-08-06T13:04:47;3.03;;;0.83;;
18449;SDS011;9354;50.194;7.690;2023-08-06T13:07:14;2.00;;;0.40;;
18449;SDS011;9354;50.194;7.690;2023-08-06T13:09:43;1.10;;;0.60;;
18449;SDS011;9354;50.194;7.690;2023-08-06T13:12:10;3.40;;;0.60;;
18449;SDS011;9354;50.194;7.690;2023-08-06T13:14:38;2.20;;;0.63;;
18449;SDS011;9354;50.194;7.690;2023-08-06T13:17:05;2.00;;;0.50;;
18449;SDS011;9354;50.194;7.690;2023-08-06T13:19:34;0.77;;;0.50;;
18449;SDS011;9354;50.194;7.690;2023-08-06T13:22:02;3.60;;;0.47;;
18449;SDS011;9354;50.194;7.690;2023-08-06T13:24:32;2.30;;;0.40;;
18449;SDS011;9354;50.194;7.690;2023-08-06T13:27:01;1.77;;;0.40;;
18449;SDS011;9354;50.194;7.690;2023-08-06T13:29:29;0.73;;;0.40;;
18449;SDS011;9354;50.194;7.690;2023-08-06T13:31:56;1.50;;;0.60;;
18449;SDS011;9354;50.194;7.690;2023-08-06T13:34:24;2.83;;;0.50;;
18449;SDS011;9354;50.194;7.690;2023-08-06T13:36:51;1.97;;;0.40;;
18449;SDS011;9354;50.194;7.690;2023-08-06T13:39:20;1.20;;;0.50;;
18449;SDS011;9354;50.194;7.690;2023-08-06T13:41:47;1.60;;;0.37;;
18449;SDS011;9354;50.194;7.690;2023-08-06T13:44:16;0.53;;;0.30;;
18449;SDS011;9354;50.194;7.690;2023-08-06T13:46:43;0.80;;;0.40;;
18449;SDS011;9354;50.194;7.690;2023-08-06T13:49:11;0.87;;;0.30;;
18449;SDS011;9354;50.194;7.690;2023-08-06T13:51:38;0.60;;;0.30;;
18449;SDS011;9354;50.194;7.690;2023-08-06T13:54:05;4.23;;;0.30;;
18449;SDS011;9354;50.194;7.690;2023-08-06T13:56:34;2.30;;;0.23;;
18449;SDS011;9354;50.194;7.690;2023-08-06T13:59:03;0.30;;;0.27;;
18449;SDS011;9354;50.194;7.690;2023-08-06T14:01:33;0.80;;;0.23;;
18449;SDS011;9354;50.194;7.690;2023-08-06T14:04:00;0.80;;;0.40;;
18449;SDS011;9354;50.194;7.690;2023-08-06T14:06:27;1.33;;;0.40;;
18449;SDS011;9354;50.194;7.690;2023-08-06T14:08:56;1.03;;;0.37;;
18449;SDS011;9354;50.194;7.690;2023-08-06T14:11:23;0.93;;;0.30;;
18449;SDS011;9354;50.194;7.690;2023-08-06T14:13:50;0.73;;;0.27;;
18449;SDS011;9354;50.194;7.690;2023-08-06T14:16:18;1.40;;;0.30;;
18449;SDS011;9354;50.194;7.690;2023-08-06T14:18:47;0.87;;;0.20;;
18449;SDS011;9354;50.194;7.690;2023-08-06T14:21:15;1.27;;;0.20;;
18449;SDS011;9354;50.194;7.690;2023-08-06T14:23:42;0.30;;;0.20;;
18449;SDS011;9354;50.194;7.690;2023-08-06T14:26:10;0.77;;;0.20;;
18449;SDS011;9354;50.194;7.690;2023-08-06T14:28:40;2.13;;;0.20;;
18449;SDS011;9354;50.194;7.690;2023-08-06T14:31:08;0.10;;;0.10;;
18449;SDS011;9354;50.194;7.690;2023-08-06T14:33:35;0.40;;;0.13;;
18449;SDS011;9354;50.194;7.690;2023-08-06T14:36:04;0.20;;;0.20;;
18449;SDS011;9354;50.194;7.690;2023-08-06T14:38:31;0.20;;;0.10;;
18449;SDS011;9354;50.194;7.690;2023-08-06T14:40:59;0.37;;;0.20;;
18449;SDS011;9354;50.194;7.690;2023-08-06T14:43:26;0.43;;;0.40;;
18449;SDS011;9354;50.194;7.690;2023-08-06T14:45:53;0.20;;;0.20;;
18449;SDS011;9354;50.194;7.690;2023-08-06T14:48:21;0.77;;;0.30;;
18449;SDS011;9354;50.194;7.690;2023-08-06T14:50:48;0.40;;;0.30;;
18449;SDS011;9354;50.194;7.690;2023-08-06T14:53:17;0.63;;;0.20;;
18449;SDS011;9354;50.194;7.690;2023-08-06T14:55:44;0.77;;;0.20;;
18449;SDS011;9354;50.194;7.690;2023-08-06T14:58:12;0.10;;;0.10;;
18449;SDS011;9354;50.194;7.690;2023-08-06T15:00:39;1.50;;;0.30;;
18449;SDS011;9354;50.194;7.690;2023-08-06T15:03:08;0.20;;;0.20;;
18449;SDS011;9354;50.194;7.690;2023-08-06T15:05:37;0.10;;;0.10;;
18449;SDS011;9354;50.194;7.690;2023-08-06T15:08:04;0.47;;;0.20;;
18449;SDS011;9354;50.194;7.690;2023-08-06T15:10:34;1.03;;;0.20;;
18449;SDS011;9354;50.194;7.690;2023-08-06T15:13:01;0.20;;;0.20;;
18449;SDS011;9354;50.194;7.690;2023-08-06T15:15:28;0.47;;;0.20;;